Time;durP1;ratioP1;P1;durP2;ratioP2;P2;SDS_P1;SDS_P2;PMS_P1;PMS_P2;Temp;Humidity;BMP_temperature;BMP_pressure;BME280_temperature;BME280_humidity;BME280_pressure;Samples;Min_cycle;Max_cycle;Signal;HPM_P1;HPM_P2
2023/01/02 00:01:46;;;;;;;13.05;3.65;;;;;;;;;;5033991;28;20036;-76
2023/01/02 00:04:12;;;;;;;12.38;3.97;;;;;;;;;;5036089;28;20112;-77
2023/01/02 00:06:38;;;;;;;17.45;3.88;;;;;;;;;;5033326;28;20107;-76
2023/01/02 00:09:05;;;;;;;9.05;3.20;;;;;;;;;;5035855;28;20033;-76
2023/01/02 00:11:31;;;;;;;13.55;3.85;;;;;;;;;;5034479;28;20070;-76
2023/01/02 00:13:57;;;;;;;14.77;3.95;;;;;;;;;;5033746;28;20029;-76
2023/01/02 00:16:23;;;;;;;15.63;4.00;;;;;;;;;;5033039;28;20034;-76
2023/01/02 00:18:49;;;;;;;16.77;3.25;;;;;;;;;;5033644;28;20112;-77
2023/01/02 00:21:15;;;;;;;16.60;4.55;;;;;;;;;;5033877;28;20453;-76
2023/01/02 00:23:42;;;;;;;17.15;4.47;;;;;;;;;;5034919;28;20050;-76
2023/01/02 00:26:08;;;;;;;16.27;4.53;;;;;;;;;;5042990;28;20025;-76
2023/01/02 00:28:35;;;;;;;16.70;4.85;;;;;;;;;;5044551;28;20079;-75
2023/01/02 00:31:12;;;;;;;13.07;4.70;;;;;;;;;;5045758;28;20030;-75
2023/01/02 00:33:38;;;;;;;17.55;4.60;;;;;;;;;;5045155;28;20029;-75
2023/01/02 00:36:08;;;;;;;13.63;4.65;;;;;;;;;;5043160;28;20037;-77
2023/01/02 00:38:34;;;;;;;12.77;4.15;;;;;;;;;;5050832;28;20033;-75
2023/01/02 00:41:00;;;;;;;14.10;4.70;;;;;;;;;;5052506;28;20074;-76
2023/01/02 00:43:27;;;;;;;20.17;4.90;;;;;;;;;;5052407;28;20048;-76
2023/01/02 00:45:53;;;;;;;13.90;4.43;;;;;;;;;;5033203;28;20021;-75
2023/01/02 00:48:19;;;;;;;14.25;5.15;;;;;;;;;;5036757;28;20024;-74
2023/01/02 00:50:45;;;;;;;20.15;5.05;;;;;;;;;;5042457;28;20075;-75
2023/01/02 00:53:11;;;;;;;20.20;5.00;;;;;;;;;;5052581;28;20029;-75
2023/01/02 00:55:37;;;;;;;16.67;4.47;;;;;;;;;;5044229;28;20065;-76
2023/01/02 00:58:03;;;;;;;13.23;4.40;;;;;;;;;;5032562;28;20052;-76
2023/01/02 01:00:29;;;;;;;15.88;4.88;;;;;;;;;;5033109;28;20104;-76
2023/01/02 01:02:56;;;;;;;16.02;4.80;;;;;;;;;;5036384;28;20105;-75
2023/01/02 01:05:22;;;;;;;18.52;4.93;;;;;;;;;;5050074;28;20025;-75
2023/01/02 01:07:48;;;;;;;16.35;4.90;;;;;;;;;;5052080;28;20033;-75
2023/01/02 01:10:14;;;;;;;12.63;4.97;;;;;;;;;;5052694;28;20086;-75
2023/01/02 01:12:40;;;;;;;20.45;5.60;;;;;;;;;;5100320;22;20052;-78
2023/01/02 01:15:06;;;;;;;17.27;5.72;;;;;;;;;;5082390;28;20025;-77
2023/01/02 01:17:32;;;;;;;19.95;5.78;;;;;;;;;;5080826;28;20393;-79
2023/01/02 01:19:58;;;;;;;20.30;5.55;;;;;;;;;;5078015;28;20037;-78
2023/01/02 01:22:24;;;;;;;21.77;6.13;;;;;;;;;;5079610;28;20013;-75
2023/01/02 01:24:50;;;;;;;19.08;6.05;;;;;;;;;;5088095;28;20029;-76
2023/01/02 01:27:16;;;;;;;22.65;6.72;;;;;;;;;;5079315;28;20025;-79
2023/01/02 01:29:42;;;;;;;19.58;6.80;;;;;;;;;;5079325;28;20020;-79
2023/01/02 01:32:08;;;;;;;18.25;6.10;;;;;;;;;;5079337;28;20237;-78
2023/01/02 01:34:34;;;;;;;28.67;7.50;;;;;;;;;;5077650;28;20024;-79
2023/01/02 01:37:00;;;;;;;16.15;6.53;;;;;;;;;;5076897;28;20029;-78
2023/01/02 01:39:26;;;;;;;21.58;6.38;;;;;;;;;;5077756;28;20025;-79
2023/01/02 01:41:52;;;;;;;26.55;6.68;;;;;;;;;;5093377;28;20127;-77
2023/01/02 01:44:41;;;;;;;25.17;6.72;;;;;;;;;;5094465;28;20461;-79
2023/01/02 01:47:15;;;;;;;19.45;6.43;;;;;;;;;;5077776;28;20060;-79
2023/01/02 01:49:41;;;;;;;26.15;6.30;;;;;;;;;;5095694;28;20028;-76
2023/01/02 01:52:08;;;;;;;15.20;6.15;;;;;;;;;;5095526;28;20053;-76
2023/01/02 01:54:53;;;;;;;16.63;6.53;;;;;;;;;;5097369;28;20047;-75
2023/01/02 01:57:27;;;;;;;16.30;6.68;;;;;;;;;;5096891;28;20013;-75
2023/01/02 01:59:54;;;;;;;24.42;7.57;;;;;;;;;;5097424;28;20035;-76
2023/01/02 02:02:22;;;;;;;20.55;6.38;;;;;;;;;;5099863;28;20043;-77
2023/01/02 02:04:48;;;;;;;17.35;6.45;;;;;;;;;;5100958;28;20018;-76
2023/01/02 02:07:14;;;;;;;17.42;6.60;;;;;;;;;;5100570;28;20346;-75
2023/01/02 02:09:55;;;;;;;18.75;7.03;;;;;;;;;;5096991;28;20016;-79
2023/01/02 02:12:21;;;;;;;17.27;6.55;;;;;;;;;;5100637;28;20020;-76
2023/01/02 02:14:47;;;;;;;21.42;7.10;;;;;;;;;;5097232;28;20035;-79
2023/01/02 02:17:20;;;;;;;24.95;6.55;;;;;;;;;;5094400;28;20012;-77
2023/01/02 02:19:49;;;;;;;26.48;7.53;;;;;;;;;;5100876;28;20029;-75
2023/01/02 02:22:35;;;;;;;20.30;6.88;;;;;;;;;;5096055;28;20025;-78
2023/01/02 02:25:24;;;;;;;25.58;6.97;;;;;;;;;;5083076;28;20050;-75
2023/01/02 02:27:50;;;;;;;25.08;6.82;;;;;;;;;;5100900;28;20019;-74
2023/01/02 02:30:17;;;;;;;19.88;7.07;;;;;;;;;;5100081;28;20033;-74
2023/01/02 02:32:52;;;;;;;20.63;7.47;;;;;;;;;;5099511;28;20047;-79
2023/01/02 02:35:37;;;;;;;25.75;7.18;;;;;;;;;;5088975;28;20470;-75
2023/01/02 02:38:07;;;;;;;20.42;7.22;;;;;;;;;;5086151;28;20481;-81
2023/01/02 02:40:33;;;;;;;19.27;6.43;;;;;;;;;;5083802;28;20067;-79
2023/01/02 02:43:19;;;;;;;18.17;6.47;;;;;;;;;;5084506;28;20021;-75
2023/01/02 02:45:48;;;;;;;19.98;7.30;;;;;;;;;;5095242;28;20043;-81
2023/01/02 02:48:31;;;;;;;23.65;6.95;;;;;;;;;;5082119;28;20453;-79
2023/01/02 02:51:19;;;;;;;21.50;5.82;;;;;;;;;;5084045;28;20115;-80
2023/01/02 02:53:50;;;;;;;14.55;5.70;;;;;;;;;;5084248;28;20028;-80
2023/01/02 02:56:17;;;;;;;23.30;6.55;;;;;;;;;;5084819;28;20032;-80
2023/01/02 02:58:43;;;;;;;13.20;5.70;;;;;;;;;;5081532;28;20039;-78
2023/01/02 03:01:17;;;;;;;24.08;6.43;;;;;;;;;;5079927;28;20032;-81
2023/01/02 03:03:43;;;;;;;17.38;6.53;;;;;;;;;;5081707;28;20025;-80
2023/01/02 03:06:12;;;;;;;21.42;6.57;;;;;;;;;;5085204;28;20047;-77
2023/01/02 03:08:57;;;;;;;18.35;6.18;;;;;;;;;;5086186;28;20017;-80
2023/01/02 03:11:24;;;;;;;20.73;6.28;;;;;;;;;;5088919;28;20047;-77
2023/01/02 03:13:50;;;;;;;20.65;6.15;;;;;;;;;;5086934;28;20444;-79
2023/01/02 03:16:24;;;;;;;21.90;6.07;;;;;;;;;;5087905;28;20029;-80
2023/01/02 03:19:01;;;;;;;20.52;7.35;;;;;;;;;;5081038;28;20431;-81
2023/01/02 03:21:35;;;;;;;20.52;6.10;;;;;;;;;;5081669;28;20025;-80
2023/01/02 03:24:09;;;;;;;20.23;6.18;;;;;;;;;;5081137;28;20027;-78
2023/01/02 03:26:36;;;;;;;18.95;7.03;;;;;;;;;;5085967;28;20469;-79
2023/01/02 03:29:12;;;;;;;25.58;6.60;;;;;;;;;;5089892;28;20047;-76
2023/01/02 03:31:39;;;;;;;22.02;6.78;;;;;;;;;;5090878;28;20025;-76
2023/01/02 03:34:08;;;;;;;22.30;7.05;;;;;;;;;;5097139;28;20029;-78
2023/01/02 03:36:34;;;;;;;14.93;6.10;;;;;;;;;;5085199;28;20016;-76
2023/01/02 03:39:09;;;;;;;21.33;6.40;;;;;;;;;;5096909;28;20040;-79
2023/01/02 03:41:35;;;;;;;;;;;;;;;;;;5079947;28;20037;-77
2023/01/02 03:44:01;;;;;;;21.60;6.05;;;;;;;;;;5083915;28;19904;-79
2023/01/02 03:46:32;;;;;;;20.25;6.50;;;;;;;;;;5081433;28;20028;-76
2023/01/02 03:49:01;;;;;;;19.27;5.85;;;;;;;;;;5089629;28;20028;-77
2023/01/02 03:51:31;;;;;;;20.27;6.00;;;;;;;;;;5079091;28;20060;-80
2023/01/02 03:53:58;;;;;;;21.95;6.65;;;;;;;;;;5082851;28;20040;-78
2023/01/02 03:56:26;;;;;;;24.90;7.07;;;;;;;;;;5080098;28;20036;-80
2023/01/02 03:58:57;;;;;;;22.67;5.70;;;;;;;;;;5077080;28;20020;-80
2023/01/02 04:01:26;;;;;;;23.58;5.78;;;;;;;;;;5077797;28;20056;-80
2023/01/02 04:03:55;;;;;;;21.92;6.20;;;;;;;;;;5082021;28;20017;-79
2023/01/02 04:06:25;;;;;;;14.07;5.65;;;;;;;;;;5094492;28;20024;-76
2023/01/02 04:08:54;;;;;;;25.13;5.53;;;;;;;;;;5094124;28;20512;-78
2023/01/02 04:11:22;;;;;;;22.88;5.72;;;;;;;;;;5077172;28;20044;-78
2023/01/02 04:13:49;;;;;;;25.55;5.82;;;;;;;;;;5077202;28;20036;-78
2023/01/02 04:16:18;;;;;;;20.42;5.38;;;;;;;;;;5076126;28;20473;-80
2023/01/02 04:18:48;;;;;;;16.08;5.35;;;;;;;;;;5083514;28;20422;-77
2023/01/02 04:21:21;;;;;;;24.95;5.75;;;;;;;;;;5086793;28;20041;-78
2023/01/02 04:23:49;;;;;;;23.17;6.20;;;;;;;;;;5084154;28;20035;-78
2023/01/02 04:26:23;;;;;;;18.98;5.55;;;;;;;;;;5083790;28;20020;-78
2023/01/02 04:28:49;;;;;;;20.30;5.82;;;;;;;;;;5081176;28;20040;-78
2023/01/02 04:31:18;;;;;;;26.25;6.32;;;;;;;;;;5078795;28;20489;-79
2023/01/02 04:33:53;;;;;;;25.05;5.75;;;;;;;;;;5078225;28;20491;-79
2023/01/02 04:36:19;;;;;;;20.35;5.13;;;;;;;;;;5078341;28;20477;-81
2023/01/02 04:38:45;;;;;;;24.40;6.30;;;;;;;;;;5078417;28;20029;-82
2023/01/02 04:41:14;;;;;;;24.55;5.68;;;;;;;;;;5077339;28;20050;-82
2023/01/02 04:43:40;;;;;;;30.67;6.22;;;;;;;;;;5077050;28;20553;-80
2023/01/02 04:46:06;;;;;;;22.88;6.05;;;;;;;;;;5077596;28;20086;-81
2023/01/02 04:48:32;;;;;;;20.73;5.20;;;;;;;;;;5080939;28;20020;-81
2023/01/02 04:50:58;;;;;;;22.33;6.00;;;;;;;;;;5082765;28;20020;-81
2023/01/02 04:53:23;;;;;;;21.85;5.47;;;;;;;;;;5079761;28;20093;-81
2023/01/02 04:55:54;;;;;;;20.70;6.22;;;;;;;;;;5079987;28;20036;-80
2023/01/02 04:58:20;;;;;;;22.35;6.32;;;;;;;;;;5082466;28;20036;-82
2023/01/02 05:00:46;;;;;;;21.17;5.10;;;;;;;;;;5082219;28;20355;-80
2023/01/02 05:03:12;;;;;;;29.50;5.60;;;;;;;;;;5082716;28;20024;-84
2023/01/02 05:05:38;;;;;;;23.83;5.93;;;;;;;;;;5080010;28;20029;-83
2023/01/02 05:08:04;;;;;;;18.08;5.93;;;;;;;;;;5079835;28;20071;-82
2023/01/02 05:10:30;;;;;;;23.02;5.63;;;;;;;;;;5079421;28;20025;-81
2023/01/02 05:12:59;;;;;;;26.75;7.63;;;;;;;;;;5078336;28;20504;-81
2023/01/02 05:15:25;;;;;;;20.20;5.28;;;;;;;;;;5078315;28;20021;-82
2023/01/02 05:17:51;;;;;;;15.30;5.07;;;;;;;;;;5079935;28;20028;-80
2023/01/02 05:20:17;;;;;;;20.48;6.05;;;;;;;;;;5081017;28;20100;-81
2023/01/02 05:25:33;;;;;;;21.70;5.95;;;;;;;;;;5086464;28;20090;-80
2023/01/02 05:27:59;;;;;;;28.55;6.35;;;;;;;;;;5080779;28;20036;-81
2023/01/02 05:30:25;;;;;;;19.85;5.60;;;;;;;;;;5079717;28;20033;-83
2023/01/02 05:32:51;;;;;;;15.48;5.57;;;;;;;;;;5079481;28;20024;-81
2023/01/02 05:35:17;;;;;;;25.17;5.97;;;;;;;;;;5080827;28;20036;-79
2023/01/02 05:37:43;;;;;;;25.58;5.40;;;;;;;;;;5074281;28;20057;-82
2023/01/02 05:40:09;;;;;;;25.20;5.95;;;;;;;;;;5081835;28;20082;-78
2023/01/02 05:42:35;;;;;;;26.60;6.05;;;;;;;;;;5074201;28;20343;-81
2023/01/02 05:45:01;;;;;;;26.15;5.30;;;;;;;;;;5075784;28;20039;-81
2023/01/02 05:47:27;;;;;;;17.88;5.97;;;;;;;;;;5092660;28;20042;-78
2023/01/02 05:49:53;;;;;;;19.88;5.38;;;;;;;;;;5094575;28;20036;-78
2023/01/02 05:52:18;;;;;;;20.67;6.20;;;;;;;;;;5072337;28;20465;-81
2023/01/02 05:54:44;;;;;;;19.63;5.85;;;;;;;;;;5062284;28;20031;-80
2023/01/02 05:57:10;;;;;;;15.88;5.60;;;;;;;;;;5061985;28;20025;-81
2023/01/02 05:59:36;;;;;;;30.30;6.38;;;;;;;;;;5066370;28;20103;-79
2023/01/02 06:02:03;;;;;;;21.88;6.22;;;;;;;;;;5063317;28;20047;-81
2023/01/02 06:04:28;;;;;;;27.30;10.73;;;;;;;;;;5065562;28;20060;-81
2023/01/02 06:06:54;;;;;;;21.55;5.82;;;;;;;;;;5064829;28;20576;-79
2023/01/02 06:09:20;;;;;;;26.73;5.88;;;;;;;;;;5066660;28;20021;-78
2023/01/02 06:11:46;;;;;;;15.77;5.68;;;;;;;;;;5076156;28;20036;-80
2023/01/02 06:14:12;;;;;;;19.75;5.82;;;;;;;;;;5066051;28;20025;-78
2023/01/02 06:16:39;;;;;;;19.63;5.53;;;;;;;;;;5069899;28;20523;-78
2023/01/02 06:19:05;;;;;;;23.48;7.10;;;;;;;;;;5082165;28;20262;-80
2023/01/02 06:21:31;;;;;;;24.88;7.72;;;;;;;;;;5076532;28;20034;-81
2023/01/02 06:23:58;;;;;;;24.80;5.97;;;;;;;;;;5075221;28;20054;-80
2023/01/02 06:26:25;;;;;;;28.90;6.57;;;;;;;;;;5090381;28;20025;-76
2023/01/02 06:28:55;;;;;;;19.40;6.85;;;;;;;;;;5088376;28;20025;-78
2023/01/02 06:31:22;;;;;;;18.83;6.57;;;;;;;;;;5084245;28;20028;-76
2023/01/02 06:33:52;;;;;;;23.88;6.57;;;;;;;;;;5094187;28;20021;-76
2023/01/02 06:36:19;;;;;;;20.75;6.45;;;;;;;;;;5093246;28;20112;-78
2023/01/02 06:38:45;;;;;;;25.13;6.55;;;;;;;;;;5086554;28;20016;-77
2023/01/02 06:41:12;;;;;;;23.30;7.72;;;;;;;;;;5096096;28;20067;-77
2023/01/02 06:43:42;;;;;;;23.73;6.47;;;;;;;;;;5095863;28;20029;-76
2023/01/02 06:46:08;;;;;;;23.70;7.30;;;;;;;;;;5089870;28;20120;-78
2023/01/02 06:48:34;;;;;;;20.20;6.68;;;;;;;;;;5094977;28;20009;-79
2023/01/02 06:51:04;;;;;;;25.60;7.00;;;;;;;;;;5092257;28;20020;-77
2023/01/02 06:53:30;;;;;;;23.15;6.53;;;;;;;;;;5090394;28;20448;-80
2023/01/02 06:55:56;;;;;;;29.00;7.07;;;;;;;;;;5084824;28;20086;-80
2023/01/02 06:58:23;;;;;;;22.60;7.07;;;;;;;;;;5075665;28;20039;-79
2023/01/02 07:00:49;;;;;;;24.08;6.93;;;;;;;;;;5074977;28;20051;-79
2023/01/02 07:03:15;;;;;;;23.15;7.40;;;;;;;;;;5077235;28;20028;-79
2023/01/02 07:05:41;;;;;;;20.77;6.95;;;;;;;;;;5082514;28;20032;-81
2023/01/02 07:08:08;;;;;;;19.92;7.68;;;;;;;;;;5075606;28;20021;-81
2023/01/02 07:10:34;;;;;;;18.73;6.85;;;;;;;;;;5080534;28;20017;-82
2023/01/02 07:13:00;;;;;;;25.80;8.02;;;;;;;;;;5078150;28;20040;-79
2023/01/02 07:15:26;;;;;;;22.00;7.18;;;;;;;;;;5060894;28;20021;-79
2023/01/02 07:17:52;;;;;;;26.25;7.22;;;;;;;;;;5062356;28;20032;-79
2023/01/02 07:20:18;;;;;;;25.20;7.35;;;;;;;;;;5059583;28;20029;-81
2023/01/02 07:22:49;;;;;;;22.65;6.90;;;;;;;;;;5071493;28;20128;-79
2023/01/02 07:25:15;;;;;;;21.35;7.32;;;;;;;;;;5071777;28;20033;-80
2023/01/02 07:27:41;;;;;;;22.17;7.03;;;;;;;;;;5068575;28;20055;-78
2023/01/02 07:30:07;;;;;;;23.52;6.55;;;;;;;;;;5067209;28;20055;-78
2023/01/02 07:32:33;;;;;;;20.98;7.47;;;;;;;;;;5067082;28;20093;-80
2023/01/02 07:34:59;;;;;;;23.88;7.03;;;;;;;;;;5064076;28;20107;-79
2023/01/02 07:37:25;;;;;;;18.90;7.22;;;;;;;;;;5068662;28;20055;-78
2023/01/02 07:39:51;;;;;;;24.48;7.65;;;;;;;;;;5061120;28;20478;-80
2023/01/02 07:42:17;;;;;;;23.42;7.05;;;;;;;;;;5061268;28;20035;-79
2023/01/02 07:44:43;;;;;;;21.95;7.13;;;;;;;;;;5072255;28;20040;-77
2023/01/02 07:47:09;;;;;;;22.75;7.60;;;;;;;;;;5075092;28;20029;-76
2023/01/02 07:49:34;;;;;;;20.20;7.57;;;;;;;;;;5072120;28;20041;-79
2023/01/02 07:52:00;;;;;;;20.13;6.88;;;;;;;;;;5057694;28;20450;-80
2023/01/02 07:54:26;;;;;;;25.40;7.60;;;;;;;;;;5067501;28;20028;-78
2023/01/02 07:56:52;;;;;;;34.47;7.80;;;;;;;;;;5059693;28;20040;-75
2023/01/02 07:59:18;;;;;;;20.77;6.97;;;;;;;;;;5056992;28;20275;-79
2023/01/02 08:01:44;;;;;;;26.45;8.13;;;;;;;;;;5059611;28;20029;-80
2023/01/02 08:04:10;;;;;;;18.50;6.10;;;;;;;;;;5057332;28;20021;-81
2023/01/02 08:06:39;;;;;;;23.45;6.50;;;;;;;;;;5064421;28;20024;-78
2023/01/02 08:09:05;;;;;;;22.67;6.53;;;;;;;;;;5057895;28;20029;-78
2023/01/02 08:11:30;;;;;;;28.27;6.25;;;;;;;;;;5056200;28;20040;-78
2023/01/02 08:13:56;;;;;;;22.83;6.25;;;;;;;;;;5056049;28;20033;-78
2023/01/02 08:16:22;;;;;;;21.83;6.45;;;;;;;;;;5054227;28;20037;-79
2023/01/02 08:18:51;;;;;;;21.80;6.40;;;;;;;;;;5055884;28;20116;-78
2023/01/02 08:21:17;;;;;;;23.13;6.68;;;;;;;;;;5055619;28;20032;-79
2023/01/02 08:23:43;;;;;;;20.02;7.00;;;;;;;;;;5057255;28;20077;-80
2023/01/02 08:26:10;;;;;;;19.92;6.57;;;;;;;;;;5059209;28;20446;-79
2023/01/02 08:28:37;;;;;;;17.38;6.68;;;;;;;;;;5061875;28;20071;-77
2023/01/02 08:31:08;;;;;;;23.65;6.60;;;;;;;;;;5065957;28;20025;-79
2023/01/02 08:33:34;;;;;;;19.65;6.80;;;;;;;;;;5059696;28;20048;-81
2023/01/02 08:36:00;;;;;;;20.95;6.68;;;;;;;;;;5068767;28;20044;-81
2023/01/02 08:38:26;;;;;;;19.95;6.65;;;;;;;;;;5064360;28;20025;-78
2023/01/02 08:40:52;;;;;;;21.33;6.72;;;;;;;;;;5065695;28;20083;-78
2023/01/02 08:43:33;;;;;;;18.05;5.95;;;;;;;;;;5102299;28;20144;-76
2023/01/02 08:46:01;;;;;;;17.55;6.10;;;;;;;;;;5104407;28;20029;-76
2023/01/02 08:48:27;;;;;;;24.42;6.22;;;;;;;;;;5108947;28;20059;-76
2023/01/02 08:50:53;;;;;;;24.52;6.57;;;;;;;;;;5107076;28;20028;-80
2023/01/02 08:53:19;;;;;;;21.02;6.25;;;;;;;;;;5095587;28;20028;-75
2023/01/02 08:55:45;;;;;;;19.88;5.90;;;;;;;;;;5090886;28;20046;-77
2023/01/02 08:58:11;;;;;;;31.13;7.22;;;;;;;;;;5092805;28;20479;-76
2023/01/02 09:00:37;;;;;;;20.80;6.57;;;;;;;;;;5093080;28;20021;-76
2023/01/02 09:03:03;;;;;;;19.83;6.20;;;;;;;;;;5091354;28;20028;-77
2023/01/02 09:05:29;;;;;;;24.02;6.28;;;;;;;;;;5090751;28;20016;-76
2023/01/02 09:07:56;;;;;;;18.27;6.30;;;;;;;;;;5091971;28;20021;-79
2023/01/02 09:10:22;;;;;;;17.30;6.10;;;;;;;;;;5101718;28;20025;-80
2023/01/02 09:12:48;;;;;;;21.02;6.78;;;;;;;;;;5109732;28;20016;-80
2023/01/02 09:15:14;;;;;;;16.25;6.30;;;;;;;;;;5115137;28;20024;-77
2023/01/02 09:17:40;;;;;;;22.15;6.00;;;;;;;;;;5114275;28;20020;-77
2023/01/02 09:20:06;;;;;;;15.00;5.70;;;;;;;;;;5114338;28;20035;-75
2023/01/02 09:22:32;;;;;;;16.20;5.18;;;;;;;;;;5114046;28;20028;-78
2023/01/02 09:24:58;;;;;;;22.92;6.30;;;;;;;;;;5113587;28;20074;-75
2023/01/02 09:27:24;;;;;;;21.90;5.60;;;;;;;;;;5114035;28;20048;-75
2023/01/02 09:29:50;;;;;;;18.48;6.20;;;;;;;;;;5114787;28;20031;-76
2023/01/02 09:32:15;;;;;;;28.85;7.63;;;;;;;;;;5107750;28;20020;-74
2023/01/02 09:34:41;;;;;;;23.73;5.32;;;;;;;;;;5110824;28;20435;-76
2023/01/02 09:37:07;;;;;;;20.92;5.40;;;;;;;;;;5110338;28;20021;-75
2023/01/02 09:39:33;;;;;;;20.90;5.60;;;;;;;;;;5111628;28;20047;-75
2023/01/02 09:41:59;;;;;;;15.70;5.72;;;;;;;;;;5118127;28;20449;-74
2023/01/02 09:44:25;;;;;;;18.67;5.85;;;;;;;;;;5128427;28;20024;-77
2023/01/02 09:46:54;;;;;;;19.88;5.35;;;;;;;;;;5115276;28;20058;-76
2023/01/02 09:49:22;;;;;;;20.33;5.65;;;;;;;;;;5118324;28;20031;-76
2023/01/02 09:51:48;;;;;;;19.13;5.45;;;;;;;;;;5115909;28;20024;-76
2023/01/02 09:54:28;;;;;;;17.40;5.93;;;;;;;;;;5105182;28;20024;-78
2023/01/02 09:57:06;;;;;;;19.20;5.30;;;;;;;;;;5096947;28;20080;-74
2023/01/02 09:59:36;;;;;;;15.18;6.05;;;;;;;;;;5101331;28;20020;-75
2023/01/02 10:02:18;;;;;;;20.83;5.40;;;;;;;;;;5102311;28;20028;-74
2023/01/02 10:04:51;;;;;;;19.13;5.13;;;;;;;;;;5101781;28;20035;-78
2023/01/02 10:07:35;;;;;;;13.35;4.88;;;;;;;;;;5101277;28;20070;-80
2023/01/02 10:10:18;;;;;;;15.63;5.10;;;;;;;;;;5105304;28;20079;-77
2023/01/02 10:13:01;;;;;;;18.65;4.80;;;;;;;;;;5101191;28;20507;-78
2023/01/02 10:15:28;;;;;;;15.30;4.57;;;;;;;;;;5095854;28;20107;-78
2023/01/02 10:17:57;;;;;;;15.85;4.38;;;;;;;;;;5097413;28;20469;-77
2023/01/02 10:20:27;;;;;;;15.63;4.63;;;;;;;;;;5098852;28;20111;-77
2023/01/02 10:22:54;;;;;;;12.70;4.80;;;;;;;;;;5099272;28;20050;-77
2023/01/02 10:25:26;;;;;;;16.55;4.97;;;;;;;;;;5097615;28;20029;-79
2023/01/02 10:27:54;;;;;;;16.27;4.75;;;;;;;;;;5096718;28;20028;-76
2023/01/02 10:30:20;;;;;;;10.10;4.18;;;;;;;;;;5097477;28;20424;-76
2023/01/02 10:32:49;;;;;;;10.88;4.50;;;;;;;;;;5096149;28;20016;-76
2023/01/02 10:35:53;;;;;;;12.77;4.50;;;;;;;;;;5095912;28;20070;-75
2023/01/02 10:38:20;;;;;;;11.77;3.92;;;;;;;;;;5033917;28;20460;-76
2023/01/02 10:40:48;;;;;;;15.30;5.57;;;;;;;;;;5046844;28;20501;-75
2023/01/02 10:43:15;;;;;;;16.77;4.80;;;;;;;;;;5062105;28;20105;-76
2023/01/02 10:45:41;;;;;;;16.10;4.57;;;;;;;;;;5106896;28;20028;-77
2023/01/02 10:48:09;;;;;;;15.93;5.40;;;;;;;;;;5100797;28;20028;-76
2023/01/02 10:50:46;;;;;;;16.92;5.57;;;;;;;;;;5094910;28;20082;-79
2023/01/02 10:53:17;;;;;;;14.27;4.55;;;;;;;;;;5094960;28;20024;-78
2023/01/02 10:55:44;;;;;;;13.85;4.38;;;;;;;;;;5094590;28;20101;-75
2023/01/02 10:58:23;;;;;;;14.00;4.28;;;;;;;;;;5096452;28;20016;-76
2023/01/02 11:00:51;;;;;;;14.25;4.40;;;;;;;;;;5095234;28;20035;-77
2023/01/02 11:03:21;;;;;;;12.68;4.35;;;;;;;;;;5094203;28;20119;-75
2023/01/02 11:05:51;;;;;;;10.70;4.63;;;;;;;;;;5094036;28;20020;-76
2023/01/02 11:08:20;;;;;;;13.90;4.97;;;;;;;;;;5096739;28;20026;-75
2023/01/02 11:10:46;;;;;;;23.23;10.02;;;;;;;;;;5094414;28;20060;-75
2023/01/02 11:13:13;;;;;;;10.82;4.45;;;;;;;;;;5107311;28;20028;-77
2023/01/02 11:15:46;;;;;;;11.63;4.15;;;;;;;;;;5114851;28;20028;-75
2023/01/02 11:18:17;;;;;;;12.00;3.95;;;;;;;;;;5114914;28;20087;-75
2023/01/02 11:20:48;;;;;;;7.28;3.15;;;;;;;;;;5111089;28;20521;-75
2023/01/02 11:23:15;;;;;;;8.02;2.80;;;;;;;;;;5098965;28;20154;-74
2023/01/02 11:25:42;;;;;;;5.78;2.33;;;;;;;;;;5098040;28;20129;-75
2023/01/02 11:28:22;;;;;;;6.53;2.03;;;;;;;;;;5098129;28;20109;-76
2023/01/02 11:30:50;;;;;;;1.17;0.60;;;;;;;;;;5097920;28;20055;-77
2023/01/02 11:33:19;;;;;;;0.60;0.60;;;;;;;;;;5094737;28;20028;-76
2023/01/02 11:35:46;;;;;;;2.70;0.82;;;;;;;;;;5092760;28;20085;-75
2023/01/02 11:38:22;;;;;;;3.72;0.90;;;;;;;;;;5094775;28;20461;-75
2023/01/02 11:41:11;;;;;;;1.95;1.08;;;;;;;;;;5095710;28;20031;-76
2023/01/02 11:43:50;;;;;;;3.00;1.52;;;;;;;;;;5100687;28;20036;-76
2023/01/02 11:46:19;;;;;;;1.10;0.90;;;;;;;;;;5096445;28;20411;-76
2023/01/02 11:48:45;;;;;;;1.40;0.90;;;;;;;;;;5097069;28;20028;-75
2023/01/02 11:51:16;;;;;;;2.75;1.30;;;;;;;;;;5095856;28;20035;-74
2023/01/02 11:53:46;;;;;;;3.55;2.20;;;;;;;;;;5102458;28;20046;-77
2023/01/02 11:56:12;;;;;;;7.00;3.95;;;;;;;;;;5111949;28;20031;-73
2023/01/02 11:58:38;;;;;;;2.65;1.70;;;;;;;;;;5110520;28;20035;-75
2023/01/02 12:01:16;;;;;;;10.55;5.10;;;;;;;;;;5093572;28;20020;-76
2023/01/02 12:03:42;;;;;;;9.98;4.40;;;;;;;;;;5093832;28;20020;-76
2023/01/02 12:06:21;;;;;;;15.57;6.15;;;;;;;;;;5092200;28;20099;-76
2023/01/02 12:09:00;;;;;;;5.95;3.08;;;;;;;;;;5093919;28;20107;-76
2023/01/02 12:11:44;;;;;;;19.77;8.05;;;;;;;;;;5093529;28;20040;-75
2023/01/02 12:14:15;;;;;;;6.70;4.28;;;;;;;;;;5091599;28;20027;-75
2023/01/02 12:17:02;;;;;;;5.47;2.67;;;;;;;;;;5092415;28;20103;-74
2023/01/02 12:19:28;;;;;;;6.50;3.17;;;;;;;;;;5092901;28;20024;-74
2023/01/02 12:22:04;;;;;;;7.00;3.30;;;;;;;;;;5092887;28;20032;-75
2023/01/02 12:24:48;;;;;;;5.50;3.22;;;;;;;;;;5093023;28;20262;-75
2023/01/02 12:27:23;;;;;;;3.38;2.17;;;;;;;;;;5092625;28;20034;-75
2023/01/02 12:30:08;;;;;;;6.68;3.15;;;;;;;;;;5093738;28;20078;-77
2023/01/02 12:32:49;;;;;;;5.20;2.28;;;;;;;;;;5092443;28;20028;-77
2023/01/02 12:35:15;;;;;;;5.53;2.30;;;;;;;;;;5097616;28;20024;-79
2023/01/02 12:37:54;;;;;;;6.57;2.78;;;;;;;;;;5101434;28;20565;-79
2023/01/02 12:40:26;;;;;;;4.25;2.38;;;;;;;;;;5099825;28;20086;-79
2023/01/02 12:43:10;;;;;;;5.68;2.22;;;;;;;;;;5098304;28;20043;-79
2023/01/02 12:45:40;;;;;;;8.68;2.17;;;;;;;;;;5097985;28;20047;-79
2023/01/02 12:48:15;;;;;;;5.78;2.30;;;;;;;;;;5099648;28;20473;-79
2023/01/02 12:50:41;;;;;;;5.07;2.08;;;;;;;;;;5102995;28;20024;-78
2023/01/02 12:53:23;;;;;;;7.00;2.40;;;;;;;;;;5106192;28;20028;-79
2023/01/02 12:55:49;;;;;;;6.57;1.85;;;;;;;;;;5107792;28;20054;-78
2023/01/02 12:58:34;;;;;;;10.07;4.43;;;;;;;;;;5101752;28;20496;-80
2023/01/02 13:01:09;;;;;;;6.60;3.15;;;;;;;;;;5099571;28;20036;-77
2023/01/02 13:04:10;;;;;;;3.28;2.17;;;;;;;;;;5096430;28;20024;-79
2023/01/02 13:06:41;;;;;;;5.90;1.85;;;;;;;;;;5035913;28;20501;-78
2023/01/02 13:09:10;;;;;;;5.03;1.60;;;;;;;;;;5084134;28;20036;-78
2023/01/02 13:11:40;;;;;;;7.30;1.63;;;;;;;;;;5105099;22;20042;-73
2023/01/02 13:14:09;;;;;;;3.95;1.60;;;;;;;;;;5033875;28;20037;-76
2023/01/02 13:16:36;;;;;;;3.65;1.80;;;;;;;;;;5031149;28;20106;-74
2023/01/02 13:19:15;;;;;;;5.65;1.75;;;;;;;;;;5032119;28;20075;-76
2023/01/02 13:21:53;;;;;;;5.07;1.42;;;;;;;;;;5032229;28;20045;-72
2023/01/02 13:24:22;;;;;;;4.18;1.30;;;;;;;;;;5031562;28;20022;-73
2023/01/02 13:26:48;;;;;;;8.63;2.03;;;;;;;;;;5031176;28;20021;-73
2023/01/02 13:29:15;;;;;;;4.43;1.50;;;;;;;;;;5036433;28;20408;-73
2023/01/02 13:31:42;;;;;;;5.32;1.70;;;;;;;;;;5035638;28;20025;-74
2023/01/02 13:34:14;;;;;;;3.40;1.45;;;;;;;;;;5034852;28;20037;-72
2023/01/02 13:36:41;;;;;;;4.43;1.73;;;;;;;;;;5034813;28;20110;-75
2023/01/02 13:39:22;;;;;;;3.80;1.55;;;;;;;;;;5035600;28;20029;-73
2023/01/02 13:44:40;;;;;;;8.82;1.90;;;;;;;;;;5021420;28;20021;-74
2023/01/02 13:47:08;;;;;;;5.82;1.48;;;;;;;;;;5033887;28;20124;-72
2023/01/02 13:49:34;;;;;;;6.05;1.73;;;;;;;;;;5033445;28;20017;-72
2023/01/02 13:52:01;;;;;;;3.47;1.30;;;;;;;;;;5024929;28;20030;-71
2023/01/02 13:54:34;;;;;;;5.18;1.42;;;;;;;;;;5025870;28;20042;-71
2023/01/02 13:57:19;;;;;;;3.63;1.00;;;;;;;;;;5024856;28;20026;-71
2023/01/02 14:00:11;;;;;;;3.33;1.23;;;;;;;;;;5023446;28;20037;-73
2023/01/02 14:02:36;;;;;;;3.83;1.20;;;;;;;;;;5011768;28;20061;-73
2023/01/02 14:05:22;;;;;;;3.00;1.30;;;;;;;;;;5026817;28;20466;-71
2023/01/02 14:07:48;;;;;;;6.43;1.40;;;;;;;;;;5026168;28;20463;-72
2023/01/02 14:10:41;;;;;;;3.33;1.23;;;;;;;;;;5021639;28;20025;-73
2023/01/02 14:13:09;;;;;;;4.50;1.30;;;;;;;;;;5026609;28;20474;-71
2023/01/02 14:15:42;;;;;;;5.20;1.67;;;;;;;;;;5023150;28;20601;-72
2023/01/02 14:18:10;;;;;;;5.75;1.50;;;;;;;;;;5025683;28;20032;-73
2023/01/02 14:20:37;;;;;;;4.38;1.17;;;;;;;;;;5023133;28;20040;-71
2023/01/02 14:23:04;;;;;;;2.67;1.05;;;;;;;;;;5024350;28;20025;-73
2023/01/02 14:25:31;;;;;;;3.80;1.17;;;;;;;;;;5029809;28;20026;-73
2023/01/02 14:28:03;;;;;;;3.40;1.02;;;;;;;;;;5021639;28;20022;-72
2023/01/02 14:30:34;;;;;;;2.80;1.45;;;;;;;;;;5029488;28;20030;-72
2023/01/02 14:33:01;;;;;;;3.90;1.08;;;;;;;;;;5026202;28;20032;-71
2023/01/02 14:35:35;;;;;;;3.85;0.98;;;;;;;;;;5022684;28;20034;-72
2023/01/02 14:38:19;;;;;;;3.27;0.90;;;;;;;;;;5026229;28;20415;-71
2023/01/02 14:40:45;;;;;;;2.20;0.85;;;;;;;;;;5023770;28;20100;-73
2023/01/02 14:43:29;;;;;;;4.70;2.53;;;;;;;;;;5023775;28;20124;-73
2023/01/02 14:45:58;;;;;;;5.10;1.48;;;;;;;;;;5020850;28;20028;-72
2023/01/02 14:48:27;;;;;;;3.75;1.25;;;;;;;;;;5022937;28;20125;-71
2023/01/02 14:50:54;;;;;;;4.20;1.60;;;;;;;;;;5026427;28;20092;-73
2023/01/02 14:53:22;;;;;;;12.65;5.20;;;;;;;;;;5028469;28;20076;-75